sensor_id;sensor_type;location;lat;lon;timestamp;P1;durP1;ratioP1;P2;durP2;ratioP2
49416;SDS011;35290;39.550;8.786;2022-12-26T00:01:16;39.58;;;22.73;;
49416;SDS011;35290;39.550;8.786;2022-12-26T00:03:42;44.80;;;24.42;;
49416;SDS011;35290;39.550;8.786;2022-12-26T00:06:11;39.00;;;22.33;;
49416;SDS011;35290;39.550;8.786;2022-12-26T00:08:37;39.22;;;23.40;;
49416;SDS011;35290;39.550;8.786;2022-12-26T00:11:02;32.78;;;19.52;;
49416;SDS011;35290;39.550;8.786;2022-12-26T00:13:27;28.50;;;17.50;;
49416;SDS011;35290;39.550;8.786;2022-12-26T00:15:53;26.30;;;15.80;;
49416;SDS011;35290;39.550;8.786;2022-12-26T00:18:18;20.98;;;12.75;;
49416;SDS011;35290;39.550;8.786;2022-12-26T00:20:43;21.83;;;11.75;;
49416;SDS011;35290;39.550;8.786;2022-12-26T00:23:09;18.27;;;12.00;;
49416;SDS011;35290;39.550;8.786;2022-12-26T00:25:34;18.25;;;11.15;;
49416;SDS011;35290;39.550;8.786;2022-12-26T00:27:59;17.65;;;10.18;;
49416;SDS011;35290;39.550;8.786;2022-12-26T00:30:25;17.30;;;9.25;;
49416;SDS011;35290;39.550;8.786;2022-12-26T00:32:50;18.02;;;9.60;;
49416;SDS011;35290;39.550;8.786;2022-12-26T00:35:16;16.10;;;10.00;;
49416;SDS011;35290;39.550;8.786;2022-12-26T00:37:41;16.00;;;10.57;;
49416;SDS011;35290;39.550;8.786;2022-12-26T00:40:06;19.83;;;12.05;;
49416;SDS011;35290;39.550;8.786;2022-12-26T00:42:32;23.02;;;14.07;;
49416;SDS011;35290;39.550;8.786;2022-12-26T00:44:57;23.52;;;14.57;;
49416;SDS011;35290;39.550;8.786;2022-12-26T00:47:23;25.30;;;15.02;;
49416;SDS011;35290;39.550;8.786;2022-12-26T00:49:48;22.13;;;14.07;;
49416;SDS011;35290;39.550;8.786;2022-12-26T00:52:13;24.70;;;14.88;;
49416;SDS011;35290;39.550;8.786;2022-12-26T00:54:39;25.98;;;14.43;;
49416;SDS011;35290;39.550;8.786;2022-12-26T00:57:04;22.63;;;15.02;;
49416;SDS011;35290;39.550;8.786;2022-12-26T00:59:29;26.88;;;15.30;;
49416;SDS011;35290;39.550;8.786;2022-12-26T01:01:55;26.13;;;15.43;;
49416;SDS011;35290;39.550;8.786;2022-12-26T01:04:20;26.33;;;14.98;;
49416;SDS011;35290;39.550;8.786;2022-12-26T01:06:45;24.88;;;14.98;;
49416;SDS011;35290;39.550;8.786;2022-12-26T01:09:10;26.55;;;15.38;;
49416;SDS011;35290;39.550;8.786;2022-12-26T01:11:37;28.65;;;15.93;;
49416;SDS011;35290;39.550;8.786;2022-12-26T01:14:07;23.65;;;15.05;;
49416;SDS011;35290;39.550;8.786;2022-12-26T01:16:33;24.02;;;15.75;;
49416;SDS011;35290;39.550;8.786;2022-12-26T01:18:58;28.95;;;16.17;;
49416;SDS011;35290;39.550;8.786;2022-12-26T01:21:23;29.45;;;16.52;;
49416;SDS011;35290;39.550;8.786;2022-12-26T01:23:49;25.55;;;16.33;;
49416;SDS011;35290;39.550;8.786;2022-12-26T01:26:14;26.63;;;15.20;;
49416;SDS011;35290;39.550;8.786;2022-12-26T01:28:39;30.02;;;16.30;;
49416;SDS011;35290;39.550;8.786;2022-12-26T01:31:05;28.02;;;17.15;;
49416;SDS011;35290;39.550;8.786;2022-12-26T01:33:32;26.42;;;16.83;;
49416;SDS011;35290;39.550;8.786;2022-12-26T01:35:57;29.15;;;16.08;;
49416;SDS011;35290;39.550;8.786;2022-12-26T01:38:22;30.40;;;16.25;;
49416;SDS011;35290;39.550;8.786;2022-12-26T01:40:48;30.13;;;16.33;;
49416;SDS011;35290;39.550;8.786;2022-12-26T01:46:18;28.15;;;15.23;;
49416;SDS011;35290;39.550;8.786;2022-12-26T01:48:45;24.33;;;14.70;;
49416;SDS011;35290;39.550;8.786;2022-12-26T01:51:11;24.55;;;12.77;;
49416;SDS011;35290;39.550;8.786;2022-12-26T01:53:46;20.70;;;12.38;;
49416;SDS011;35290;39.550;8.786;2022-12-26T01:56:12;26.92;;;12.95;;
49416;SDS011;35290;39.550;8.786;2022-12-26T01:58:42;19.40;;;10.52;;
49416;SDS011;35290;39.550;8.786;2022-12-26T02:01:08;17.65;;;11.07;;
49416;SDS011;35290;39.550;8.786;2022-12-26T02:03:45;21.75;;;10.55;;
49416;SDS011;35290;39.550;8.786;2022-12-26T02:06:39;19.83;;;10.38;;
49416;SDS011;35290;39.550;8.786;2022-12-26T02:09:05;18.73;;;10.80;;
49416;SDS011;35290;39.550;8.786;2022-12-26T02:11:36;18.25;;;9.68;;
49416;SDS011;35290;39.550;8.786;2022-12-26T02:14:03;17.65;;;9.70;;
49416;SDS011;35290;39.550;8.786;2022-12-26T02:16:30;18.50;;;9.82;;
49416;SDS011;35290;39.550;8.786;2022-12-26T02:18:56;15.93;;;10.70;;
49416;SDS011;35290;39.550;8.786;2022-12-26T02:39:46;11.57;;;7.20;;
49416;SDS011;35290;39.550;8.786;2022-12-26T02:50:08;13.52;;;7.80;;
49416;SDS011;35290;39.550;8.786;2022-12-26T02:53:11;13.90;;;8.15;;
49416;SDS011;35290;39.550;8.786;2022-12-26T02:56:03;17.40;;;8.50;;
49416;SDS011;35290;39.550;8.786;2022-12-26T02:59:12;13.25;;;7.72;;
49416;SDS011;35290;39.550;8.786;2022-12-26T03:04:55;14.10;;;8.13;;
49416;SDS011;35290;39.550;8.786;2022-12-26T03:07:45;12.98;;;7.47;;
49416;SDS011;35290;39.550;8.786;2022-12-26T03:10:30;12.85;;;7.22;;
49416;SDS011;35290;39.550;8.786;2022-12-26T03:13:25;10.55;;;6.80;;
49416;SDS011;35290;39.550;8.786;2022-12-26T03:15:53;12.77;;;7.68;;
49416;SDS011;35290;39.550;8.786;2022-12-26T03:18:39;12.77;;;6.80;;
49416;SDS011;35290;39.550;8.786;2022-12-26T03:21:06;9.25;;;6.32;;
49416;SDS011;35290;39.550;8.786;2022-12-26T03:23:32;8.45;;;5.60;;
49416;SDS011;35290;39.550;8.786;2022-12-26T03:26:06;10.18;;;5.97;;
49416;SDS011;35290;39.550;8.786;2022-12-26T03:28:50;9.02;;;6.05;;
49416;SDS011;35290;39.550;8.786;2022-12-26T03:31:16;11.82;;;6.00;;
49416;SDS011;35290;39.550;8.786;2022-12-26T03:33:45;10.13;;;5.90;;
49416;SDS011;35290;39.550;8.786;2022-12-26T03:39:18;10.20;;;5.63;;
49416;SDS011;35290;39.550;8.786;2022-12-26T03:42:09;11.00;;;5.93;;
49416;SDS011;35290;39.550;8.786;2022-12-26T03:45:16;10.48;;;5.80;;
49416;SDS011;35290;39.550;8.786;2022-12-26T03:48:05;9.70;;;6.20;;
49416;SDS011;35290;39.550;8.786;2022-12-26T03:50:54;8.38;;;6.45;;
49416;SDS011;35290;39.550;8.786;2022-12-26T03:54:20;8.57;;;6.30;;
49416;SDS011;35290;39.550;8.786;2022-12-26T03:56:54;10.10;;;6.72;;
49416;SDS011;35290;39.550;8.786;2022-12-26T04:03:01;9.55;;;6.45;;
49416;SDS011;35290;39.550;8.786;2022-12-26T04:05:48;8.60;;;5.90;;
49416;SDS011;35290;39.550;8.786;2022-12-26T04:08:45;7.53;;;5.63;;
49416;SDS011;35290;39.550;8.786;2022-12-26T04:11:31;12.23;;;5.57;;
49416;SDS011;35290;39.550;8.786;2022-12-26T04:15:02;10.85;;;6.45;;
49416;SDS011;35290;39.550;8.786;2022-12-26T04:20:19;10.75;;;5.80;;
49416;SDS011;35290;39.550;8.786;2022-12-26T04:22:48;11.75;;;6.10;;
49416;SDS011;35290;39.550;8.786;2022-12-26T04:25:40;14.43;;;7.50;;
49416;SDS011;35290;39.550;8.786;2022-12-26T04:28:26;23.67;;;11.07;;
49416;SDS011;35290;39.550;8.786;2022-12-26T04:31:16;20.83;;;11.30;;
49416;SDS011;35290;39.550;8.786;2022-12-26T04:34:05;14.45;;;8.75;;
49416;SDS011;35290;39.550;8.786;2022-12-26T04:36:52;14.38;;;8.23;;
49416;SDS011;35290;39.550;8.786;2022-12-26T04:39:39;10.13;;;6.82;;
49416;SDS011;35290;39.550;8.786;2022-12-26T04:42:23;12.23;;;6.25;;
49416;SDS011;35290;39.550;8.786;2022-12-26T04:45:08;12.68;;;6.65;;
49416;SDS011;35290;39.550;8.786;2022-12-26T04:47:34;7.85;;;5.50;;
49416;SDS011;35290;39.550;8.786;2022-12-26T04:50:03;9.60;;;5.85;;
49416;SDS011;35290;39.550;8.786;2022-12-26T04:52:40;8.07;;;5.78;;
49416;SDS011;35290;39.550;8.786;2022-12-26T04:55:31;9.05;;;6.18;;
49416;SDS011;35290;39.550;8.786;2022-12-26T04:57:56;9.95;;;6.40;;
49416;SDS011;35290;39.550;8.786;2022-12-26T05:00:23;9.55;;;6.97;;
49416;SDS011;35290;39.550;8.786;2022-12-26T05:02:52;13.48;;;8.15;;
49416;SDS011;35290;39.550;8.786;2022-12-26T05:05:38;15.25;;;9.70;;
49416;SDS011;35290;39.550;8.786;2022-12-26T05:08:26;19.73;;;11.90;;
49416;SDS011;35290;39.550;8.786;2022-12-26T05:11:12;19.83;;;10.88;;
49416;SDS011;35290;39.550;8.786;2022-12-26T05:13:37;16.13;;;10.25;;
49416;SDS011;35290;39.550;8.786;2022-12-26T05:16:03;20.38;;;12.77;;
49416;SDS011;35290;39.550;8.786;2022-12-26T05:18:47;23.10;;;14.10;;
49416;SDS011;35290;39.550;8.786;2022-12-26T05:21:32;19.48;;;12.82;;
49416;SDS011;35290;39.550;8.786;2022-12-26T05:24:16;20.40;;;12.70;;
49416;SDS011;35290;39.550;8.786;2022-12-26T05:27:00;15.93;;;10.15;;
49416;SDS011;35290;39.550;8.786;2022-12-26T05:29:44;13.13;;;8.32;;
49416;SDS011;35290;39.550;8.786;2022-12-26T05:32:10;12.40;;;8.88;;
49416;SDS011;35290;39.550;8.786;2022-12-26T05:34:37;11.10;;;7.82;;
49416;SDS011;35290;39.550;8.786;2022-12-26T05:37:03;10.93;;;7.25;;
49416;SDS011;35290;39.550;8.786;2022-12-26T05:39:28;10.07;;;7.20;;
49416;SDS011;35290;39.550;8.786;2022-12-26T05:41:53;11.02;;;7.07;;
49416;SDS011;35290;39.550;8.786;2022-12-26T05:44:19;15.00;;;7.88;;
49416;SDS011;35290;39.550;8.786;2022-12-26T05:46:44;12.07;;;7.43;;
49416;SDS011;35290;39.550;8.786;2022-12-26T05:49:10;15.48;;;7.50;;
49416;SDS011;35290;39.550;8.786;2022-12-26T05:51:36;13.07;;;7.90;;
49416;SDS011;35290;39.550;8.786;2022-12-26T05:54:01;12.25;;;8.40;;
49416;SDS011;35290;39.550;8.786;2022-12-26T05:56:27;18.25;;;10.25;;
49416;SDS011;35290;39.550;8.786;2022-12-26T05:58:53;19.25;;;12.20;;
49416;SDS011;35290;39.550;8.786;2022-12-26T06:01:19;17.90;;;11.65;;
49416;SDS011;35290;39.550;8.786;2022-12-26T06:03:45;17.40;;;10.35;;
49416;SDS011;35290;39.550;8.786;2022-12-26T06:06:11;11.98;;;8.00;;
49416;SDS011;35290;39.550;8.786;2022-12-26T06:08:37;11.32;;;7.95;;
49416;SDS011;35290;39.550;8.786;2022-12-26T06:11:03;10.10;;;6.68;;
49416;SDS011;35290;39.550;8.786;2022-12-26T06:13:29;13.30;;;7.07;;
49416;SDS011;35290;39.550;8.786;2022-12-26T06:15:54;12.00;;;7.15;;
49416;SDS011;35290;39.550;8.786;2022-12-26T06:18:19;11.50;;;7.22;;
49416;SDS011;35290;39.550;8.786;2022-12-26T06:20:45;13.82;;;7.47;;
49416;SDS011;35290;39.550;8.786;2022-12-26T06:23:10;15.15;;;8.55;;
49416;SDS011;35290;39.550;8.786;2022-12-26T06:25:35;15.13;;;8.18;;
49416;SDS011;35290;39.550;8.786;2022-12-26T06:28:01;13.90;;;8.50;;
49416;SDS011;35290;39.550;8.786;2022-12-26T06:30:26;10.85;;;7.32;;
49416;SDS011;35290;39.550;8.786;2022-12-26T06:32:51;10.68;;;7.38;;
49416;SDS011;35290;39.550;8.786;2022-12-26T06:35:17;12.82;;;7.03;;
49416;SDS011;35290;39.550;8.786;2022-12-26T06:37:42;9.90;;;6.53;;
49416;SDS011;35290;39.550;8.786;2022-12-26T06:40:09;10.52;;;6.55;;
49416;SDS011;35290;39.550;8.786;2022-12-26T06:42:34;11.10;;;6.13;;
49416;SDS011;35290;39.550;8.786;2022-12-26T06:44:59;9.43;;;6.75;;
49416;SDS011;35290;39.550;8.786;2022-12-26T06:47:25;17.60;;;7.82;;
49416;SDS011;35290;39.550;8.786;2022-12-26T06:49:50;22.50;;;8.52;;
49416;SDS011;35290;39.550;8.786;2022-12-26T06:52:16;14.13;;;8.00;;
49416;SDS011;35290;39.550;8.786;2022-12-26T06:54:41;13.80;;;10.00;;
49416;SDS011;35290;39.550;8.786;2022-12-26T06:57:06;18.00;;;12.18;;
49416;SDS011;35290;39.550;8.786;2022-12-26T06:59:31;18.60;;;12.73;;
49416;SDS011;35290;39.550;8.786;2022-12-26T07:01:57;21.95;;;14.40;;
49416;SDS011;35290;39.550;8.786;2022-12-26T07:04:22;19.17;;;13.82;;
49416;SDS011;35290;39.550;8.786;2022-12-26T07:06:49;23.90;;;16.33;;
49416;SDS011;35290;39.550;8.786;2022-12-26T07:09:15;22.63;;;15.25;;
49416;SDS011;35290;39.550;8.786;2022-12-26T07:11:42;31.38;;;20.13;;
49416;SDS011;35290;39.550;8.786;2022-12-26T07:14:08;46.30;;;26.35;;
49416;SDS011;35290;39.550;8.786;2022-12-26T07:16:34;44.05;;;24.40;;
49416;SDS011;35290;39.550;8.786;2022-12-26T07:18:59;39.08;;;24.38;;
49416;SDS011;35290;39.550;8.786;2022-12-26T07:21:25;34.85;;;22.33;;
49416;SDS011;35290;39.550;8.786;2022-12-26T07:23:50;38.45;;;26.33;;
49416;SDS011;35290;39.550;8.786;2022-12-26T07:26:16;59.83;;;34.92;;
49416;SDS011;35290;39.550;8.786;2022-12-26T07:28:41;66.50;;;37.83;;
49416;SDS011;35290;39.550;8.786;2022-12-26T07:31:07;66.88;;;39.13;;
49416;SDS011;35290;39.550;8.786;2022-12-26T07:33:32;57.88;;;35.95;;
49416;SDS011;35290;39.550;8.786;2022-12-26T07:36:02;59.63;;;36.03;;
49416;SDS011;35290;39.550;8.786;2022-12-26T07:38:28;59.72;;;35.95;;
49416;SDS011;35290;39.550;8.786;2022-12-26T07:40:54;56.97;;;34.55;;
49416;SDS011;35290;39.550;8.786;2022-12-26T07:43:19;47.80;;;31.27;;
49416;SDS011;35290;39.550;8.786;2022-12-26T07:45:44;40.60;;;27.50;;
49416;SDS011;35290;39.550;8.786;2022-12-26T07:48:10;43.10;;;27.40;;
49416;SDS011;35290;39.550;8.786;2022-12-26T07:50:35;42.45;;;28.45;;
49416;SDS011;35290;39.550;8.786;2022-12-26T07:53:00;42.35;;;27.85;;
49416;SDS011;35290;39.550;8.786;2022-12-26T07:55:25;39.05;;;22.75;;
49416;SDS011;35290;39.550;8.786;2022-12-26T07:57:51;25.80;;;18.80;;
49416;SDS011;35290;39.550;8.786;2022-12-26T08:00:17;24.20;;;16.67;;
49416;SDS011;35290;39.550;8.786;2022-12-26T08:02:43;26.10;;;15.73;;
49416;SDS011;35290;39.550;8.786;2022-12-26T08:05:09;28.50;;;17.92;;
49416;SDS011;35290;39.550;8.786;2022-12-26T08:07:34;29.67;;;17.42;;
49416;SDS011;35290;39.550;8.786;2022-12-26T08:09:59;33.60;;;17.83;;
49416;SDS011;35290;39.550;8.786;2022-12-26T08:12:24;32.63;;;20.92;;
49416;SDS011;35290;39.550;8.786;2022-12-26T08:14:51;33.45;;;20.65;;
49416;SDS011;35290;39.550;8.786;2022-12-26T08:17:16;32.03;;;18.70;;
49416;SDS011;35290;39.550;8.786;2022-12-26T08:19:42;27.23;;;17.23;;
49416;SDS011;35290;39.550;8.786;2022-12-26T08:22:08;29.90;;;17.73;;
49416;SDS011;35290;39.550;8.786;2022-12-26T08:24:34;38.47;;;26.80;;
49416;SDS011;35290;39.550;8.786;2022-12-26T08:26:59;36.05;;;28.27;;
49416;SDS011;35290;39.550;8.786;2022-12-26T08:29:24;47.88;;;36.92;;
49416;SDS011;35290;39.550;8.786;2022-12-26T08:31:50;42.78;;;32.53;;
49416;SDS011;35290;39.550;8.786;2022-12-26T08:34:15;35.85;;;25.48;;
49416;SDS011;35290;39.550;8.786;2022-12-26T08:36:40;55.72;;;33.47;;
49416;SDS011;35290;39.550;8.786;2022-12-26T08:39:06;51.72;;;30.77;;
49416;SDS011;35290;39.550;8.786;2022-12-26T08:41:31;47.45;;;29.58;;
49416;SDS011;35290;39.550;8.786;2022-12-26T08:43:57;37.80;;;22.02;;
49416;SDS011;35290;39.550;8.786;2022-12-26T08:46:22;36.95;;;21.88;;
49416;SDS011;35290;39.550;8.786;2022-12-26T08:48:48;34.15;;;21.55;;
49416;SDS011;35290;39.550;8.786;2022-12-26T08:51:18;37.08;;;22.42;;
49416;SDS011;35290;39.550;8.786;2022-12-26T08:53:43;30.42;;;20.23;;
49416;SDS011;35290;39.550;8.786;2022-12-26T08:56:11;31.25;;;18.42;;
49416;SDS011;35290;39.550;8.786;2022-12-26T08:58:37;25.48;;;16.17;;
49416;SDS011;35290;39.550;8.786;2022-12-26T09:01:09;24.35;;;15.90;;
49416;SDS011;35290;39.550;8.786;2022-12-26T09:03:34;26.70;;;17.38;;
49416;SDS011;35290;39.550;8.786;2022-12-26T09:06:00;35.33;;;22.77;;
49416;SDS011;35290;39.550;8.786;2022-12-26T09:08:26;29.50;;;20.15;;
49416;SDS011;35290;39.550;8.786;2022-12-26T09:10:52;27.73;;;18.98;;
49416;SDS011;35290;39.550;8.786;2022-12-26T09:13:17;24.88;;;15.25;;
49416;SDS011;35290;39.550;8.786;2022-12-26T09:15:44;30.75;;;20.02;;
49416;SDS011;35290;39.550;8.786;2022-12-26T09:18:10;27.60;;;18.58;;
49416;SDS011;35290;39.550;8.786;2022-12-26T09:20:36;25.05;;;16.02;;
49416;SDS011;35290;39.550;8.786;2022-12-26T09:23:01;22.65;;;16.08;;
49416;SDS011;35290;39.550;8.786;2022-12-26T09:25:26;27.70;;;19.42;;
49416;SDS011;35290;39.550;8.786;2022-12-26T09:27:52;26.40;;;16.60;;
49416;SDS011;35290;39.550;8.786;2022-12-26T09:30:18;27.13;;;18.02;;
49416;SDS011;35290;39.550;8.786;2022-12-26T09:32:44;27.98;;;18.73;;
49416;SDS011;35290;39.550;8.786;2022-12-26T09:35:10;31.50;;;19.75;;
49416;SDS011;35290;39.550;8.786;2022-12-26T09:37:35;30.75;;;17.75;;
49416;SDS011;35290;39.550;8.786;2022-12-26T09:40:01;25.75;;;16.73;;
49416;SDS011;35290;39.550;8.786;2022-12-26T09:45:18;24.40;;;13.98;;
49416;SDS011;35290;39.550;8.786;2022-12-26T09:48:05;24.30;;;14.93;;
49416;SDS011;35290;39.550;8.786;2022-12-26T09:50:34;24.45;;;16.98;;
49416;SDS011;35290;39.550;8.786;2022-12-26T09:53:21;24.27;;;14.70;;
49416;SDS011;35290;39.550;8.786;2022-12-26T09:56:00;28.15;;;19.20;;
49416;SDS011;35290;39.550;8.786;2022-12-26T10:01:04;30.58;;;17.70;;
49416;SDS011;35290;39.550;8.786;2022-12-26T10:03:42;22.42;;;14.13;;
49416;SDS011;35290;39.550;8.786;2022-12-26T10:06:17;19.65;;;12.75;;
49416;SDS011;35290;39.550;8.786;2022-12-26T10:11:12;25.88;;;12.05;;
49416;SDS011;35290;39.550;8.786;2022-12-26T10:13:42;17.23;;;10.05;;
49416;SDS011;35290;39.550;8.786;2022-12-26T10:16:13;16.70;;;11.57;;
49416;SDS011;35290;39.550;8.786;2022-12-26T10:18:49;17.08;;;11.70;;
49416;SDS011;35290;39.550;8.786;2022-12-26T10:23:46;14.88;;;9.98;;
49416;SDS011;35290;39.550;8.786;2022-12-26T10:31:36;19.67;;;9.48;;
49416;SDS011;35290;39.550;8.786;2022-12-26T10:36:50;15.38;;;7.63;;
49416;SDS011;35290;39.550;8.786;2022-12-26T10:39:17;10.32;;;7.35;;
49416;SDS011;35290;39.550;8.786;2022-12-26T10:41:46;13.65;;;7.90;;
49416;SDS011;35290;39.550;8.786;2022-12-26T10:44:12;15.55;;;8.60;;
49416;SDS011;35290;39.550;8.786;2022-12-26T10:49:10;19.75;;;8.73;;
49416;SDS011;35290;39.550;8.786;2022-12-26T10:51:39;15.43;;;9.25;;
49416;SDS011;35290;39.550;8.786;2022-12-26T10:54:11;19.92;;;13.52;;
49416;SDS011;35290;39.550;8.786;2022-12-26T10:59:03;45.80;;;25.10;;
49416;SDS011;35290;39.550;8.786;2022-12-26T11:01:32;37.22;;;21.98;;
49416;SDS011;35290;39.550;8.786;2022-12-26T11:03:59;40.35;;;33.97;;
49416;SDS011;35290;39.550;8.786;2022-12-26T11:06:26;19.02;;;14.00;;
49416;SDS011;35290;39.550;8.786;2022-12-26T11:08:54;16.52;;;10.10;;
49416;SDS011;35290;39.550;8.786;2022-12-26T11:11:21;11.40;;;7.65;;
49416;SDS011;35290;39.550;8.786;2022-12-26T11:13:48;16.48;;;8.65;;
49416;SDS011;35290;39.550;8.786;2022-12-26T11:16:22;12.32;;;8.02;;
49416;SDS011;35290;39.550;8.786;2022-12-26T11:18:48;12.85;;;7.22;;
49416;SDS011;35290;39.550;8.786;2022-12-26T11:21:21;11.05;;;7.43;;
49416;SDS011;35290;39.550;8.786;2022-12-26T11:23:50;10.30;;;7.47;;
49416;SDS011;35290;39.550;8.786;2022-12-26T11:26:26;15.50;;;6.50;;
49416;SDS011;35290;39.550;8.786;2022-12-26T11:31:41;14.77;;;6.88;;
49416;SDS011;35290;39.550;8.786;2022-12-26T11:34:12;13.23;;;6.38;;
49416;SDS011;35290;39.550;8.786;2022-12-26T11:36:43;11.70;;;6.57;;
49416;SDS011;35290;39.550;8.786;2022-12-26T11:39:20;10.35;;;5.90;;
49416;SDS011;35290;39.550;8.786;2022-12-26T11:41:46;8.63;;;6.53;;
49416;SDS011;35290;39.550;8.786;2022-12-26T11:51:46;8.90;;;6.07;;
49416;SDS011;35290;39.550;8.786;2022-12-26T11:54:22;11.30;;;7.18;;
49416;SDS011;35290;39.550;8.786;2022-12-26T11:56:48;11.20;;;6.97;;
49416;SDS011;35290;39.550;8.786;2022-12-26T11:59:18;11.88;;;8.25;;
49416;SDS011;35290;39.550;8.786;2022-12-26T12:01:44;11.95;;;7.43;;
49416;SDS011;35290;39.550;8.786;2022-12-26T12:04:09;15.18;;;10.50;;
49416;SDS011;35290;39.550;8.786;2022-12-26T12:19:21;16.98;;;9.60;;
49416;SDS011;35290;39.550;8.786;2022-12-26T12:22:50;17.75;;;10.52;;
49416;SDS011;35290;39.550;8.786;2022-12-26T12:25:19;15.02;;;10.40;;
49416;SDS011;35290;39.550;8.786;2022-12-26T12:30:18;23.45;;;14.63;;
49416;SDS011;35290;39.550;8.786;2022-12-26T12:40:50;15.63;;;9.25;;
49416;SDS011;35290;39.550;8.786;2022-12-26T12:48:21;10.55;;;7.85;;
49416;SDS011;35290;39.550;8.786;2022-12-26T12:58:33;12.00;;;7.93;;
49416;SDS011;35290;39.550;8.786;2022-12-26T13:01:04;11.82;;;6.75;;
49416;SDS011;35290;39.550;8.786;2022-12-26T13:11:00;18.15;;;11.48;;
49416;SDS011;35290;39.550;8.786;2022-12-26T13:15:55;46.80;;;24.08;;
49416;SDS011;35290;39.550;8.786;2022-12-26T13:18:22;23.92;;;14.15;;
49416;SDS011;35290;39.550;8.786;2022-12-26T13:20:52;31.38;;;19.30;;
49416;SDS011;35290;39.550;8.786;2022-12-26T13:28:56;45.90;;;27.60;;
49416;SDS011;35290;39.550;8.786;2022-12-26T13:31:22;26.88;;;16.55;;
49416;SDS011;35290;39.550;8.786;2022-12-26T13:33:48;22.80;;;13.52;;
49416;SDS011;35290;39.550;8.786;2022-12-26T13:42:00;12.75;;;6.93;;
49416;SDS011;35290;39.550;8.786;2022-12-26T13:44:41;20.17;;;11.55;;
49416;SDS011;35290;39.550;8.786;2022-12-26T13:49:50;17.75;;;8.60;;
49416;SDS011;35290;39.550;8.786;2022-12-26T13:52:23;16.15;;;9.73;;
49416;SDS011;35290;39.550;8.786;2022-12-26T13:57:35;25.02;;;14.90;;
49416;SDS011;35290;39.550;8.786;2022-12-26T14:02:43;10.73;;;7.40;;
49416;SDS011;35290;39.550;8.786;2022-12-26T14:20:51;6.88;;;4.90;;
49416;SDS011;35290;39.550;8.786;2022-12-26T14:34:15;10.63;;;5.82;;
49416;SDS011;35290;39.550;8.786;2022-12-26T14:42:37;11.75;;;7.00;;
49416;SDS011;35290;39.550;8.786;2022-12-26T14:44:56;13.07;;;6.10;;
49416;SDS011;35290;39.550;8.786;2022-12-26T14:47:39;11.57;;;6.85;;
49416;SDS011;35290;39.550;8.786;2022-12-26T14:52:50;18.08;;;9.60;;
49416;SDS011;35290;39.550;8.786;2022-12-26T15:00:43;28.33;;;13.60;;
49416;SDS011;35290;39.550;8.786;2022-12-26T15:05:43;16.60;;;9.02;;
49416;SDS011;35290;39.550;8.786;2022-12-26T15:16:20;33.38;;;18.33;;
49416;SDS011;35290;39.550;8.786;2022-12-26T15:21:24;26.42;;;16.30;;
49416;SDS011;35290;39.550;8.786;2022-12-26T15:26:53;33.72;;;18.48;;
49416;SDS011;35290;39.550;8.786;2022-12-26T15:29:26;21.50;;;13.88;;
49416;SDS011;35290;39.550;8.786;2022-12-26T15:32:04;21.80;;;11.65;;
49416;SDS011;35290;39.550;8.786;2022-12-26T15:40:00;15.48;;;10.88;;
49416;SDS011;35290;39.550;8.786;2022-12-26T15:48:15;11.10;;;7.25;;
49416;SDS011;35290;39.550;8.786;2022-12-26T15:50:51;10.05;;;8.02;;
49416;SDS011;35290;39.550;8.786;2022-12-26T16:00:49;15.00;;;10.02;;
49416;SDS011;35290;39.550;8.786;2022-12-26T16:05:54;172.23;;;141.43;;
49416;SDS011;35290;39.550;8.786;2022-12-26T16:16:37;45.95;;;32.47;;
49416;SDS011;35290;39.550;8.786;2022-12-26T16:19:19;40.33;;;27.77;;
49416;SDS011;35290;39.550;8.786;2022-12-26T16:21:47;33.20;;;23.33;;
49416;SDS011;35290;39.550;8.786;2022-12-26T16:24:32;27.10;;;19.73;;
49416;SDS011;35290;39.550;8.786;2022-12-26T16:26:58;20.95;;;14.43;;
49416;SDS011;35290;39.550;8.786;2022-12-26T16:29:25;21.45;;;15.70;;
49416;SDS011;35290;39.550;8.786;2022-12-26T16:31:51;24.60;;;14.65;;
49416;SDS011;35290;39.550;8.786;2022-12-26T16:34:17;26.70;;;19.42;;
49416;SDS011;35290;39.550;8.786;2022-12-26T16:36:43;68.60;;;45.25;;
49416;SDS011;35290;39.550;8.786;2022-12-26T16:39:09;139.40;;;84.22;;
49416;SDS011;35290;39.550;8.786;2022-12-26T16:41:35;88.80;;;53.35;;
49416;SDS011;35290;39.550;8.786;2022-12-26T16:47:13;66.13;;;40.80;;
49416;SDS011;35290;39.550;8.786;2022-12-26T16:49:39;60.28;;;37.95;;
49416;SDS011;35290;39.550;8.786;2022-12-26T16:54:53;40.80;;;26.80;;
49416;SDS011;35290;39.550;8.786;2022-12-26T16:57:18;43.50;;;28.15;;
49416;SDS011;35290;39.550;8.786;2022-12-26T16:59:49;40.00;;;25.60;;
49416;SDS011;35290;39.550;8.786;2022-12-26T17:04:48;33.60;;;21.90;;
49416;SDS011;35290;39.550;8.786;2022-12-26T17:07:14;30.33;;;21.00;;
49416;SDS011;35290;39.550;8.786;2022-12-26T17:09:41;33.13;;;21.85;;
49416;SDS011;35290;39.550;8.786;2022-12-26T17:12:16;31.45;;;19.85;;
49416;SDS011;35290;39.550;8.786;2022-12-26T17:14:44;29.83;;;20.02;;
49416;SDS011;35290;39.550;8.786;2022-12-26T17:19:48;41.78;;;26.40;;
49416;SDS011;35290;39.550;8.786;2022-12-26T17:24:42;42.03;;;27.50;;
49416;SDS011;35290;39.550;8.786;2022-12-26T17:29:34;43.67;;;28.50;;
49416;SDS011;35290;39.550;8.786;2022-12-26T17:31:59;49.45;;;29.30;;
49416;SDS011;35290;39.550;8.786;2022-12-26T17:34:25;42.63;;;28.88;;
49416;SDS011;35290;39.550;8.786;2022-12-26T17:36:50;42.80;;;28.83;;
49416;SDS011;35290;39.550;8.786;2022-12-26T17:41:52;46.47;;;29.13;;
49416;SDS011;35290;39.550;8.786;2022-12-26T17:47:02;51.17;;;30.23;;
49416;SDS011;35290;39.550;8.786;2022-12-26T17:49:30;62.63;;;34.55;;
49416;SDS011;35290;39.550;8.786;2022-12-26T17:51:56;61.83;;;34.55;;
49416;SDS011;35290;39.550;8.786;2022-12-26T17:54:21;58.92;;;32.90;;
49416;SDS011;35290;39.550;8.786;2022-12-26T17:56:47;70.93;;;38.58;;
49416;SDS011;35290;39.550;8.786;2022-12-26T17:59:12;135.18;;;81.07;;
49416;SDS011;35290;39.550;8.786;2022-12-26T18:01:40;117.82;;;69.25;;
49416;SDS011;35290;39.550;8.786;2022-12-26T18:04:06;131.85;;;78.93;;
49416;SDS011;35290;39.550;8.786;2022-12-26T18:06:31;129.65;;;78.50;;
49416;SDS011;35290;39.550;8.786;2022-12-26T18:08:56;128.48;;;78.22;;
49416;SDS011;35290;39.550;8.786;2022-12-26T18:11:22;132.75;;;76.90;;
49416;SDS011;35290;39.550;8.786;2022-12-26T18:13:48;131.18;;;76.57;;
49416;SDS011;35290;39.550;8.786;2022-12-26T18:16:14;112.53;;;70.57;;
49416;SDS011;35290;39.550;8.786;2022-12-26T18:18:41;109.50;;;67.05;;
49416;SDS011;35290;39.550;8.786;2022-12-26T18:21:08;97.28;;;61.15;;
49416;SDS011;35290;39.550;8.786;2022-12-26T18:23:34;87.07;;;55.50;;
49416;SDS011;35290;39.550;8.786;2022-12-26T18:26:00;83.32;;;51.33;;
49416;SDS011;35290;39.550;8.786;2022-12-26T18:28:26;75.80;;;49.05;;
49416;SDS011;35290;39.550;8.786;2022-12-26T18:30:51;75.80;;;45.15;;
49416;SDS011;35290;39.550;8.786;2022-12-26T18:33:17;66.95;;;40.90;;
49416;SDS011;35290;39.550;8.786;2022-12-26T18:35:43;70.95;;;39.25;;
49416;SDS011;35290;39.550;8.786;2022-12-26T18:38:17;61.40;;;37.22;;
49416;SDS011;35290;39.550;8.786;2022-12-26T18:40:44;67.25;;;38.20;;
49416;SDS011;35290;39.550;8.786;2022-12-26T18:43:10;56.05;;;34.00;;
49416;SDS011;35290;39.550;8.786;2022-12-26T18:45:36;53.08;;;32.67;;
49416;SDS011;35290;39.550;8.786;2022-12-26T18:48:02;53.42;;;32.03;;
49416;SDS011;35290;39.550;8.786;2022-12-26T18:50:28;48.92;;;30.40;;